createdAt,value
2023-05-10T00:00:09.687Z,97572.00
2023-05-10T00:00:19.709Z,97570.00
2023-05-10T00:00:29.705Z,97572.00
2023-05-10T00:00:39.712Z,97570.00
2023-05-10T00:00:49.716Z,97570.00
2023-05-10T00:00:59.837Z,97570.00
2023-05-10T00:01:09.855Z,97570.00
2023-05-10T00:01:19.904Z,97570.00
2023-05-10T00:01:29.930Z,97572.00
2023-05-10T00:01:39.964Z,97572.00
2023-05-10T00:01:50.319Z,97570.00
2023-05-10T00:02:00.338Z,97572.00
2023-05-10T00:02:10.383Z,97572.00
2023-05-10T00:02:20.460Z,97572.00
2023-05-10T00:02:30.515Z,97570.00
2023-05-10T00:02:40.767Z,97572.00
2023-05-10T00:02:50.691Z,97572.00
2023-05-10T00:03:00.695Z,97572.00
2023-05-10T00:03:10.730Z,97572.00
2023-05-10T00:03:20.776Z,97572.00
2023-05-10T00:03:30.810Z,97572.00
2023-05-10T00:03:40.794Z,97572.00
2023-05-10T00:03:50.901Z,97572.00
2023-05-10T00:04:00.964Z,97572.00
2023-05-10T00:04:11.049Z,97570.00
2023-05-10T00:04:21.129Z,97570.00
2023-05-10T00:04:31.136Z,97574.00
2023-05-10T00:04:41.151Z,97570.00
2023-05-10T00:04:51.167Z,97572.00
2023-05-10T00:05:01.189Z,97572.00
2023-05-10T00:05:11.188Z,97572.00
2023-05-10T00:05:21.214Z,97572.00
2023-05-10T00:05:31.210Z,97572.00
2023-05-10T00:05:41.209Z,97572.00
2023-05-10T00:05:51.601Z,97570.00
2023-05-10T00:06:01.615Z,97568.00
2023-05-10T00:06:11.747Z,97570.00
2023-05-10T00:06:22.001Z,97570.00
2023-05-10T00:06:32.005Z,97568.00
2023-05-10T00:06:42.020Z,97568.00
2023-05-10T00:06:52.026Z,97570.00
2023-05-10T00:07:02.037Z,97566.00
2023-05-10T00:07:12.046Z,97566.00
2023-05-10T00:07:22.187Z,97568.00
2023-05-10T00:07:32.116Z,97570.00
2023-05-10T00:07:42.113Z,97570.00
2023-05-10T00:07:52.118Z,97568.00
2023-05-10T00:08:02.143Z,97568.00
2023-05-10T00:08:12.153Z,97570.00
2023-05-10T00:08:32.283Z,97572.00
2023-05-10T00:08:42.318Z,97572.00
2023-05-10T00:08:52.332Z,97572.00
2023-05-10T00:09:02.340Z,97572.00
2023-05-10T00:09:12.600Z,97570.00
2023-05-10T00:09:22.626Z,97572.00
2023-05-10T00:09:32.620Z,97570.00
2023-05-10T00:09:42.627Z,97570.00
2023-05-10T00:09:52.635Z,97572.00
2023-05-10T00:10:02.665Z,97570.00
2023-05-10T00:10:12.662Z,97570.00
2023-05-10T00:10:22.672Z,97570.00
2023-05-10T00:10:32.673Z,97572.00
2023-05-10T00:10:42.699Z,97570.00
2023-05-10T00:10:52.700Z,97570.00
2023-05-10T00:11:02.727Z,97572.00
2023-05-10T00:11:12.745Z,97568.00
2023-05-10T00:11:23.244Z,97570.00
2023-05-10T00:11:32.988Z,97568.00
2023-05-10T00:11:42.991Z,97568.00
2023-05-10T00:11:53.108Z,97568.00
2023-05-10T00:12:03.366Z,97568.00
2023-05-10T00:12:13.514Z,97570.00
2023-05-10T00:12:23.509Z,97566.00
2023-05-10T00:12:33.772Z,97570.00
2023-05-10T00:12:43.806Z,97568.00
2023-05-10T00:12:53.823Z,97570.00
2023-05-10T00:13:03.897Z,97568.00
2023-05-10T00:13:13.968Z,97570.00
2023-05-10T00:13:24.151Z,97570.00
2023-05-10T00:13:34.074Z,97568.00
2023-05-10T00:13:44.089Z,97572.00
2023-05-10T00:13:54.215Z,97568.00
2023-05-10T00:14:04.216Z,97570.00
2023-05-10T00:14:14.494Z,97570.00
2023-05-10T00:14:24.508Z,97570.00
2023-05-10T00:14:34.520Z,97572.00
2023-05-10T00:14:44.533Z,97572.00
2023-05-10T00:14:54.559Z,97572.00
2023-05-10T00:15:04.561Z,97570.00
2023-05-10T00:15:14.699Z,97574.00
2023-05-10T00:15:24.703Z,97572.00
2023-05-10T00:15:34.719Z,97572.00
2023-05-10T00:15:44.722Z,97574.00
2023-05-10T00:15:54.972Z,97574.00
2023-05-10T00:16:05.017Z,97574.00
2023-05-10T00:16:15.091Z,97576.00
2023-05-10T00:16:25.168Z,97574.00
2023-05-10T00:16:35.218Z,97574.00
2023-05-10T00:16:45.260Z,97576.00
2023-05-10T00:16:55.361Z,97576.00
2023-05-10T00:17:05.393Z,97574.00
2023-05-10T00:17:15.523Z,97576.00
2023-05-10T00:17:25.563Z,97576.00
2023-05-10T00:17:35.809Z,97578.00
2023-05-10T00:17:45.876Z,97576.00
2023-05-10T00:17:55.911Z,97574.00
2023-05-10T00:18:06.256Z,97578.00
2023-05-10T00:18:16.270Z,97578.00
2023-05-10T00:18:26.281Z,97578.00
2023-05-10T00:18:36.535Z,97576.00
2023-05-10T00:18:46.545Z,97574.00
2023-05-10T00:18:56.552Z,97576.00
2023-05-10T00:19:06.553Z,97574.00
2023-05-10T00:19:16.577Z,97576.00
2023-05-10T00:19:26.572Z,97578.00
2023-05-10T00:19:36.583Z,97574.00
2023-05-10T00:19:46.595Z,97574.00
2023-05-10T00:19:56.621Z,97574.00
2023-05-10T00:20:06.608Z,97574.00
2023-05-10T00:20:16.882Z,97574.00
2023-05-10T00:20:26.680Z,97576.00
2023-05-10T00:20:36.671Z,97572.00
2023-05-10T00:20:46.688Z,97574.00
2023-05-10T00:20:56.694Z,97572.00
2023-05-10T00:21:06.702Z,97572.00
2023-05-10T00:21:16.818Z,97572.00
2023-05-10T00:21:26.818Z,97570.00
2023-05-10T00:21:36.828Z,97574.00
2023-05-10T00:21:46.838Z,97574.00
2023-05-10T00:21:56.832Z,97572.00
2023-05-10T00:22:07.103Z,97572.00
2023-05-10T00:22:17.111Z,97574.00
2023-05-10T00:22:27.104Z,97572.00
2023-05-10T00:22:37.498Z,97574.00
2023-05-10T00:22:47.508Z,97572.00
2023-05-10T00:22:57.507Z,97572.00
2023-05-10T00:23:07.520Z,97574.00
2023-05-10T00:23:17.534Z,97574.00
2023-05-10T00:23:27.545Z,97574.00
2023-05-10T00:23:37.559Z,97576.00
2023-05-10T00:23:47.595Z,97574.00
2023-05-10T00:23:57.590Z,97572.00
2023-05-10T00:24:07.590Z,97574.00
2023-05-10T00:24:17.990Z,97572.00
2023-05-10T00:24:28.013Z,97572.00
2023-05-10T00:24:38.010Z,97572.00
2023-05-10T00:24:48.017Z,97572.00
2023-05-10T00:24:58.024Z,97568.00
2023-05-10T00:25:08.065Z,97570.00
2023-05-10T00:25:18.056Z,97570.00
2023-05-10T00:25:28.060Z,97566.00
2023-05-10T00:25:38.182Z,97568.00
2023-05-10T00:25:48.184Z,97568.00
2023-05-10T00:25:58.444Z,97566.00
2023-05-10T00:26:08.470Z,97566.00
2023-05-10T00:26:18.468Z,97566.00
2023-05-10T00:26:28.481Z,97564.00
2023-05-10T00:26:38.498Z,97566.00
2023-05-10T00:26:48.518Z,97568.00
2023-05-10T00:26:58.516Z,97566.00
2023-05-10T00:27:08.522Z,97566.00
2023-05-10T00:27:18.557Z,97566.00
2023-05-10T00:27:28.533Z,97566.00
2023-05-10T00:27:38.915Z,97566.00
2023-05-10T00:27:48.909Z,97566.00
2023-05-10T00:27:59.028Z,97564.00
2023-05-10T00:28:09.291Z,97566.00
2023-05-10T00:28:19.292Z,97566.00
2023-05-10T00:28:29.297Z,97566.00
2023-05-10T00:28:39.669Z,97564.00
2023-05-10T00:28:49.683Z,97562.00
2023-05-10T00:28:59.686Z,97562.00
2023-05-10T00:29:09.737Z,97566.00
2023-05-10T00:29:19.724Z,97562.00
2023-05-10T00:29:29.730Z,97562.00
2023-05-10T00:29:39.853Z,97562.00
2023-05-10T00:29:49.865Z,97564.00
2023-05-10T00:29:59.984Z,97562.00
2023-05-10T00:30:10.000Z,97566.00
2023-05-10T00:30:20.144Z,97564.00
2023-05-10T00:30:30.158Z,97562.00
2023-05-10T00:30:40.155Z,97566.00
2023-05-10T00:30:50.161Z,97564.00
2023-05-10T00:31:00.169Z,97566.00
2023-05-10T00:31:10.171Z,97566.00
2023-05-10T00:31:20.190Z,97568.00
2023-05-10T00:31:30.205Z,97566.00
2023-05-10T00:31:40.234Z,97568.00
2023-05-10T00:31:50.295Z,97568.00
2023-05-10T00:32:00.692Z,97570.00
2023-05-10T00:32:10.721Z,97570.00
2023-05-10T00:32:20.824Z,97570.00
2023-05-10T00:32:30.844Z,97570.00
2023-05-10T00:32:40.910Z,97572.00
2023-05-10T00:32:51.036Z,97572.00
2023-05-10T00:33:00.953Z,97570.00
2023-05-10T00:33:11.026Z,97570.00
2023-05-10T00:33:21.029Z,97574.00
2023-05-10T00:33:31.038Z,97574.00
2023-05-10T00:33:41.296Z,97574.00
2023-05-10T00:33:51.287Z,97576.00
2023-05-10T00:34:01.432Z,97576.00
2023-05-10T00:34:11.676Z,97574.00
2023-05-10T00:34:21.682Z,97574.00
2023-05-10T00:34:31.697Z,97572.00
2023-05-10T00:34:41.688Z,97572.00
2023-05-10T00:34:51.721Z,97570.00
2023-05-10T00:35:01.694Z,97570.00
2023-05-10T00:35:11.710Z,97572.00
2023-05-10T00:35:21.714Z,97572.00
2023-05-10T00:35:31.728Z,97572.00
2023-05-10T00:35:41.732Z,97572.00
2023-05-10T00:35:51.731Z,97572.00
2023-05-10T00:36:01.856Z,97574.00
2023-05-10T00:36:11.878Z,97574.00
2023-05-10T00:36:21.885Z,97572.00
2023-05-10T00:36:31.887Z,97570.00
2023-05-10T00:36:41.898Z,97566.00
2023-05-10T00:36:51.919Z,97566.00
2023-05-10T00:37:02.163Z,97572.00
2023-05-10T00:37:12.164Z,97566.00
2023-05-10T00:37:22.166Z,97566.00
2023-05-10T00:37:32.170Z,97564.00
2023-05-10T00:37:42.188Z,97568.00
2023-05-10T00:37:52.189Z,97566.00
2023-05-10T00:38:02.217Z,97568.00
2023-05-10T00:38:12.220Z,97566.00
2023-05-10T00:38:22.238Z,97568.00
2023-05-10T00:38:32.228Z,97570.00
2023-05-10T00:38:42.617Z,97572.00
2023-05-10T00:38:52.616Z,97572.00
2023-05-10T00:39:02.728Z,97572.00
2023-05-10T00:39:12.991Z,97574.00
2023-05-10T00:39:23.105Z,97576.00
2023-05-10T00:39:33.108Z,97574.00
2023-05-10T00:39:43.386Z,97574.00
2023-05-10T00:39:53.381Z,97568.00
2023-05-10T00:40:03.383Z,97568.00
2023-05-10T00:40:13.484Z,97570.00
2023-05-10T00:40:23.510Z,97574.00
2023-05-10T00:40:33.522Z,97572.00
2023-05-10T00:40:43.528Z,97570.00
2023-05-10T00:40:53.540Z,97570.00
2023-05-10T00:41:03.555Z,97572.00
2023-05-10T00:41:13.561Z,97572.00
2023-05-10T00:41:23.566Z,97572.00
2023-05-10T00:41:33.584Z,97572.00
2023-05-10T00:41:43.588Z,97570.00
2023-05-10T00:41:53.588Z,97568.00
2023-05-10T00:42:03.612Z,97570.00
2023-05-10T00:42:13.608Z,97568.00
2023-05-10T00:42:23.653Z,97570.00
2023-05-10T00:42:33.632Z,97570.00
2023-05-10T00:42:43.649Z,97568.00
2023-05-10T00:42:53.670Z,97568.00
2023-05-10T00:43:03.655Z,97574.00
2023-05-10T00:43:13.692Z,97572.00
2023-05-10T00:43:23.686Z,97574.00
2023-05-10T00:43:33.696Z,97572.00
2023-05-10T00:43:43.701Z,97572.00
2023-05-10T00:43:53.710Z,97576.00
2023-05-10T00:44:03.722Z,97572.00
2023-05-10T00:44:13.725Z,97574.00
2023-05-10T00:44:23.849Z,97574.00
2023-05-10T00:44:33.864Z,97574.00
2023-05-10T00:44:43.865Z,97574.00
2023-05-10T00:44:54.124Z,97574.00
2023-05-10T00:45:04.124Z,97574.00
2023-05-10T00:45:14.134Z,97574.00
2023-05-10T00:45:24.132Z,97574.00
2023-05-10T00:45:34.156Z,97576.00
2023-05-10T00:45:44.198Z,97574.00
2023-05-10T00:45:54.222Z,97574.00
2023-05-10T00:46:04.271Z,97574.00
2023-05-10T00:46:14.306Z,97572.00
2023-05-10T00:46:24.421Z,97570.00
2023-05-10T00:46:34.563Z,97572.00
2023-05-10T00:46:44.533Z,97572.00
2023-05-10T00:46:54.525Z,97570.00
2023-05-10T00:47:04.518Z,97572.00
2023-05-10T00:47:14.648Z,97572.00
2023-05-10T00:47:24.675Z,97568.00
2023-05-10T00:47:34.723Z,97568.00
2023-05-10T00:47:44.772Z,97572.00
2023-05-10T00:47:54.895Z,97572.00
2023-05-10T00:48:05.001Z,97572.00
2023-05-10T00:48:14.916Z,97574.00
2023-05-10T00:48:25.036Z,97570.00
2023-05-10T00:48:35.042Z,97572.00
2023-05-10T00:48:45.043Z,97578.00
2023-05-10T00:48:55.312Z,97576.00
2023-05-10T00:49:05.316Z,97574.00
2023-05-10T00:49:15.324Z,97576.00
2023-05-10T00:49:25.336Z,97576.00
2023-05-10T00:49:35.375Z,97578.00
2023-05-10T00:49:45.380Z,97576.00
2023-05-10T00:49:55.379Z,97576.00
2023-05-10T00:50:05.383Z,97578.00
2023-05-10T00:50:15.602Z,97576.00
2023-05-10T00:50:25.400Z,97578.00
2023-05-10T00:50:35.406Z,97576.00
2023-05-10T00:50:45.420Z,97576.00
2023-05-10T00:50:55.422Z,97580.00
2023-05-10T00:51:05.440Z,97578.00
2023-05-10T00:51:15.552Z,97578.00
2023-05-10T00:51:25.561Z,97578.00
2023-05-10T00:51:35.566Z,97580.00
2023-05-10T00:51:45.851Z,97580.00
2023-05-10T00:51:55.848Z,97580.00
2023-05-10T00:52:05.863Z,97582.00
2023-05-10T00:52:16.253Z,97578.00
2023-05-10T00:52:26.253Z,97585.00
2023-05-10T00:52:36.259Z,97583.00
2023-05-10T00:52:46.270Z,97578.00
2023-05-10T00:52:56.399Z,97578.00
2023-05-10T00:53:06.407Z,97578.00
2023-05-10T00:53:16.403Z,97578.00
2023-05-10T00:53:26.413Z,97580.00
2023-05-10T00:53:36.530Z,97580.00
2023-05-10T00:53:46.561Z,97580.00
2023-05-10T00:53:56.697Z,97580.00
2023-05-10T00:54:06.695Z,97580.00
2023-05-10T00:54:16.697Z,97580.00
2023-05-10T00:54:26.717Z,97580.00
2023-05-10T00:54:36.716Z,97578.00
2023-05-10T00:54:46.712Z,97580.00
2023-05-10T00:54:56.843Z,97580.00
2023-05-10T00:55:06.850Z,97580.00
2023-05-10T00:55:16.851Z,97580.00
2023-05-10T00:55:26.855Z,97578.00
2023-05-10T00:55:37.104Z,97580.00
2023-05-10T00:55:47.103Z,97582.00
2023-05-10T00:55:57.136Z,97580.00
2023-05-10T00:56:07.138Z,97580.00
2023-05-10T00:56:17.151Z,97578.00
2023-05-10T00:56:27.148Z,97582.00
2023-05-10T00:56:37.168Z,97576.00
2023-05-10T00:56:47.179Z,97582.00
2023-05-10T00:56:57.187Z,97578.00
2023-05-10T00:57:07.186Z,97578.00
2023-05-10T00:57:17.578Z,97582.00
2023-05-10T00:57:27.598Z,97578.00
2023-05-10T00:57:37.586Z,97583.00
2023-05-10T00:57:47.594Z,97583.00
2023-05-10T00:57:57.596Z,97580.00
2023-05-10T00:58:07.604Z,97580.00
2023-05-10T00:58:17.726Z,97582.00
2023-05-10T00:58:27.739Z,97582.00
2023-05-10T00:58:37.736Z,97582.00
2023-05-10T00:58:47.730Z,97578.00
2023-05-10T00:58:57.995Z,97580.00
2023-05-10T00:59:07.990Z,97580.00
2023-05-10T00:59:18.116Z,97580.00
2023-05-10T00:59:28.380Z,97582.00
2023-05-10T00:59:38.379Z,97580.00
2023-05-10T00:59:48.387Z,97582.00
2023-05-10T00:59:58.396Z,97582.00
2023-05-10T01:00:08.406Z,97582.00
2023-05-10T01:00:18.614Z,97580.00
2023-05-10T01:00:28.542Z,97580.00
2023-05-10T01:00:38.664Z,97580.00
2023-05-10T01:00:48.671Z,97580.00
2023-05-10T01:00:58.697Z,97580.00
2023-05-10T01:01:08.847Z,97580.00
2023-05-10T01:01:18.931Z,97582.00
2023-05-10T01:01:29.015Z,97582.00
2023-05-10T01:01:39.311Z,97580.00
2023-05-10T01:01:49.414Z,97578.00
2023-05-10T01:01:59.331Z,97580.00
2023-05-10T01:02:09.357Z,97582.00
2023-05-10T01:02:19.454Z,97582.00
2023-05-10T01:02:29.480Z,97580.00
2023-05-10T01:02:39.633Z,97578.00
2023-05-10T01:02:49.667Z,97578.00
2023-05-10T01:02:59.642Z,97576.00
2023-05-10T01:03:09.781Z,97578.00
2023-05-10T01:03:20.137Z,97578.00
2023-05-10T01:03:30.087Z,97580.00
2023-05-10T01:03:40.155Z,97580.00
2023-05-10T01:03:50.426Z,97580.00
2023-05-10T01:04:00.556Z,97582.00
2023-05-10T01:04:10.617Z,97582.00
2023-05-10T01:04:20.878Z,97583.00
2023-05-10T01:04:30.922Z,97580.00
2023-05-10T01:04:40.971Z,97582.00
2023-05-10T01:04:51.076Z,97582.00
2023-05-10T01:05:01.122Z,97583.00
2023-05-10T01:05:11.178Z,97583.00
2023-05-10T01:05:21.225Z,97583.00
2023-05-10T01:05:31.256Z,97583.00
2023-05-10T01:05:41.371Z,97580.00
2023-05-10T01:05:51.372Z,97583.00
2023-05-10T01:06:01.635Z,97582.00
2023-05-10T01:06:11.628Z,97582.00
2023-05-10T01:06:21.638Z,97582.00
2023-05-10T01:06:31.650Z,97582.00
2023-05-10T01:06:41.666Z,97582.00
2023-05-10T01:06:51.678Z,97578.00
2023-05-10T01:07:01.701Z,97580.00
2023-05-10T01:07:11.711Z,97576.00
2023-05-10T01:07:21.710Z,97580.00
2023-05-10T01:07:31.714Z,97576.00
2023-05-10T01:07:41.716Z,97580.00
2023-05-10T01:07:51.729Z,97578.00
2023-05-10T01:08:01.743Z,97580.00
2023-05-10T01:08:11.750Z,97580.00
2023-05-10T01:08:21.759Z,97582.00
2023-05-10T01:08:31.758Z,97583.00
2023-05-10T01:08:41.767Z,97583.00
2023-05-10T01:08:51.764Z,97582.00
2023-05-10T01:09:01.887Z,97580.00
2023-05-10T01:09:11.886Z,97582.00
2023-05-10T01:09:22.019Z,97582.00
2023-05-10T01:09:32.019Z,97582.00
2023-05-10T01:09:42.138Z,97582.00
2023-05-10T01:09:52.146Z,97583.00
2023-05-10T01:10:02.179Z,97583.00
2023-05-10T01:10:12.175Z,97582.00
2023-05-10T01:10:22.179Z,97582.00
2023-05-10T01:10:32.188Z,97583.00
2023-05-10T01:10:42.189Z,97582.00
2023-05-10T01:10:52.195Z,97583.00
2023-05-10T01:11:02.232Z,97582.00
2023-05-10T01:11:12.241Z,97583.00
2023-05-10T01:11:22.243Z,97583.00
2023-05-10T01:11:32.250Z,97582.00
2023-05-10T01:11:42.263Z,97580.00
2023-05-10T01:11:52.353Z,97583.00
2023-05-10T01:12:02.395Z,97585.00
2023-05-10T01:12:12.414Z,97583.00
2023-05-10T01:12:22.464Z,97583.00
2023-05-10T01:12:32.524Z,97583.00
2023-05-10T01:12:42.591Z,97583.00
2023-05-10T01:12:52.855Z,97583.00
2023-05-10T01:13:02.903Z,97585.00
2023-05-10T01:13:12.903Z,97585.00
2023-05-10T01:13:22.990Z,97585.00
2023-05-10T01:13:33.030Z,97580.00
2023-05-10T01:13:43.041Z,97582.00
2023-05-10T01:13:53.042Z,97587.00
2023-05-10T01:14:03.161Z,97582.00
2023-05-10T01:14:13.164Z,97583.00
2023-05-10T01:14:23.287Z,97583.00
2023-05-10T01:14:33.433Z,97583.00
2023-05-10T01:14:43.421Z,97583.00
2023-05-10T01:14:53.419Z,97583.00
2023-05-10T01:15:03.813Z,97583.00
2023-05-10T01:15:13.808Z,97585.00
2023-05-10T01:15:23.949Z,97582.00
2023-05-10T01:15:34.364Z,97583.00
2023-05-10T01:15:44.333Z,97583.00
2023-05-10T01:15:54.351Z,97583.00
2023-05-10T01:16:04.462Z,97583.00
2023-05-10T01:16:14.391Z,97583.00
2023-05-10T01:16:24.462Z,97585.00
2023-05-10T01:16:34.544Z,97585.00
2023-05-10T01:16:44.666Z,97585.00
2023-05-10T01:16:54.677Z,97583.00
2023-05-10T01:17:04.677Z,97583.00
2023-05-10T01:17:14.686Z,97585.00
2023-05-10T01:17:24.734Z,97583.00
2023-05-10T01:17:34.768Z,97583.00
2023-05-10T01:17:44.859Z,97585.00
2023-05-10T01:17:54.954Z,97582.00
2023-05-10T01:18:04.975Z,97585.00
2023-05-10T01:18:14.977Z,97583.00
2023-05-10T01:18:25.359Z,97583.00
2023-05-10T01:18:35.356Z,97580.00
2023-05-10T01:18:45.485Z,97582.00
2023-05-10T01:18:55.739Z,97582.00
2023-05-10T01:19:05.857Z,97580.00
2023-05-10T01:19:15.929Z,97582.00
2023-05-10T01:19:26.174Z,97585.00
2023-05-10T01:19:36.179Z,97582.00
2023-05-10T01:19:46.302Z,97583.00
2023-05-10T01:19:56.554Z,97582.00
2023-05-10T01:20:06.563Z,97583.00
2023-05-10T01:20:16.841Z,97585.00
2023-05-10T01:20:26.945Z,97585.00
2023-05-10T01:20:36.946Z,97582.00
2023-05-10T01:20:47.067Z,97582.00
2023-05-10T01:20:57.337Z,97583.00
2023-05-10T01:21:07.353Z,97583.00
2023-05-10T01:21:17.356Z,97583.00
2023-05-10T01:21:27.735Z,97583.00
2023-05-10T01:21:37.763Z,97585.00
2023-05-10T01:21:47.750Z,97585.00
2023-05-10T01:21:57.761Z,97585.00
2023-05-10T01:22:07.784Z,97587.00
2023-05-10T01:22:17.791Z,97587.00
2023-05-10T01:22:27.795Z,97587.00
2023-05-10T01:22:37.810Z,97587.00
2023-05-10T01:22:47.815Z,97589.00
2023-05-10T01:22:57.819Z,97591.00
2023-05-10T01:23:07.838Z,97591.00
2023-05-10T01:23:17.890Z,97591.00
2023-05-10T01:23:27.890Z,97593.00
2023-05-10T01:23:37.892Z,97589.00
2023-05-10T01:23:47.922Z,97591.00
2023-05-10T01:23:57.931Z,97591.00
2023-05-10T01:24:08.051Z,97591.00
2023-05-10T01:24:18.310Z,97593.00
2023-05-10T01:24:28.313Z,97593.00
2023-05-10T01:24:38.314Z,97593.00
2023-05-10T01:24:48.337Z,97593.00
2023-05-10T01:24:58.354Z,97591.00
2023-05-10T01:25:08.348Z,97593.00
2023-05-10T01:25:18.364Z,97593.00
2023-05-10T01:25:28.374Z,97589.00
2023-05-10T01:25:38.389Z,97589.00
2023-05-10T01:25:48.389Z,97589.00
2023-05-10T01:25:58.396Z,97591.00
2023-05-10T01:26:08.422Z,97589.00
2023-05-10T01:26:18.426Z,97589.00
2023-05-10T01:26:28.434Z,97587.00
2023-05-10T01:26:38.442Z,97589.00
2023-05-10T01:26:48.452Z,97589.00
2023-05-10T01:26:58.459Z,97589.00
2023-05-10T01:27:08.536Z,97589.00
2023-05-10T01:27:18.547Z,97589.00
2023-05-10T01:27:28.577Z,97589.00
2023-05-10T01:27:38.601Z,97591.00
2023-05-10T01:27:48.582Z,97591.00
2023-05-10T01:27:58.580Z,97593.00
2023-05-10T01:28:08.585Z,97593.00
2023-05-10T01:28:18.584Z,97593.00
2023-05-10T01:28:28.707Z,97593.00
2023-05-10T01:28:38.716Z,97593.00
2023-05-10T01:28:48.736Z,97593.00
2023-05-10T01:28:58.753Z,97595.00
2023-05-10T01:29:08.747Z,97589.00
2023-05-10T01:29:18.761Z,97591.00
2023-05-10T01:29:29.008Z,97593.00
2023-05-10T01:29:39.018Z,97593.00
2023-05-10T01:29:58.174Z,97593.00
2023-05-10T01:30:14.135Z,97595.00
2023-05-10T01:30:14.669Z,97591.00
2023-05-10T01:30:19.141Z,97593.00
2023-05-10T01:30:29.160Z,97591.00
2023-05-10T01:30:39.167Z,97595.00
2023-05-10T01:30:49.275Z,97597.00
2023-05-10T01:30:59.302Z,97595.00
2023-05-10T01:31:09.351Z,97597.00
2023-05-10T01:31:19.441Z,97595.00
2023-05-10T01:31:29.483Z,97595.00
2023-05-10T01:31:39.832Z,97595.00
2023-05-10T01:31:49.880Z,97595.00
2023-05-10T01:31:59.755Z,97597.00
2023-05-10T01:32:09.754Z,97595.00
2023-05-10T01:32:19.874Z,97597.00
2023-05-10T01:32:29.906Z,97595.00
2023-05-10T01:32:39.960Z,97595.00
2023-05-10T01:32:49.970Z,97595.00
2023-05-10T01:32:59.983Z,97593.00
2023-05-10T01:33:09.984Z,97593.00
2023-05-10T01:33:20.233Z,97593.00
2023-05-10T01:33:30.244Z,97593.00
2023-05-10T01:33:40.243Z,97593.00
2023-05-10T01:33:50.254Z,97591.00
2023-05-10T01:34:00.374Z,97591.00
2023-05-10T01:34:10.377Z,97591.00
2023-05-10T01:34:20.494Z,97595.00
2023-05-10T01:34:30.509Z,97595.00
2023-05-10T01:34:40.642Z,97593.00
2023-05-10T01:34:50.654Z,97595.00
2023-05-10T01:35:00.670Z,97595.00
2023-05-10T01:35:10.674Z,97597.00
2023-05-10T01:35:20.709Z,97597.00
2023-05-10T01:35:30.693Z,97595.00
2023-05-10T01:35:40.836Z,97595.00
2023-05-10T01:35:50.824Z,97595.00
2023-05-10T01:36:00.945Z,97597.00
2023-05-10T01:36:10.955Z,97595.00
2023-05-10T01:36:20.958Z,97595.00
2023-05-10T01:36:30.963Z,97595.00
2023-05-10T01:36:41.086Z,97593.00
2023-05-10T01:36:51.082Z,97593.00
2023-05-10T01:37:01.091Z,97591.00
2023-05-10T01:37:11.105Z,97589.00
2023-05-10T01:37:21.114Z,97591.00
2023-05-10T01:37:31.110Z,97587.00
2023-05-10T01:37:41.234Z,97591.00
2023-05-10T01:37:51.246Z,97589.00
2023-05-10T01:38:01.249Z,97589.00
2023-05-10T01:38:11.250Z,97589.00
2023-05-10T01:38:21.505Z,97589.00
2023-05-10T01:38:31.515Z,97589.00
2023-05-10T01:38:41.508Z,97591.00
2023-05-10T01:38:51.533Z,97587.00
2023-05-10T01:39:01.531Z,97587.00
2023-05-10T01:39:11.536Z,97587.00
2023-05-10T01:39:21.659Z,97589.00
2023-05-10T01:39:31.668Z,97587.00
2023-05-10T01:39:41.670Z,97585.00
2023-05-10T01:39:51.675Z,97587.00
2023-05-10T01:40:01.935Z,97585.00
2023-05-10T01:40:11.923Z,97587.00
2023-05-10T01:40:22.041Z,97585.00
2023-05-10T01:40:32.316Z,97587.00
2023-05-10T01:40:42.332Z,97587.00
2023-05-10T01:40:52.330Z,97585.00
2023-05-10T01:41:02.717Z,97587.00
2023-05-10T01:41:12.725Z,97587.00
2023-05-10T01:41:22.727Z,97585.00
2023-05-10T01:41:32.733Z,97587.00
2023-05-10T01:41:42.755Z,97587.00
2023-05-10T01:41:52.766Z,97589.00
2023-05-10T01:42:02.764Z,97591.00
2023-05-10T01:42:12.788Z,97591.00
2023-05-10T01:42:22.789Z,97591.00
2023-05-10T01:42:32.786Z,97589.00
2023-05-10T01:42:42.821Z,97591.00
2023-05-10T01:42:52.816Z,97587.00
2023-05-10T01:43:02.808Z,97585.00
2023-05-10T01:43:12.809Z,97591.00
2023-05-10T01:43:22.826Z,97585.00
2023-05-10T01:43:32.828Z,97589.00
2023-05-10T01:43:42.844Z,97591.00
2023-05-10T01:43:52.846Z,97585.00
2023-05-10T01:44:02.967Z,97585.00
2023-05-10T01:44:12.970Z,97587.00
2023-05-10T01:44:22.974Z,97587.00
2023-05-10T01:44:32.992Z,97585.00
2023-05-10T01:44:42.994Z,97585.00
2023-05-10T01:44:53.009Z,97585.00
2023-05-10T01:45:03.297Z,97587.00
2023-05-10T01:45:13.306Z,97583.00
2023-05-10T01:45:23.426Z,97585.00
2023-05-10T01:45:33.682Z,97583.00
2023-05-10T01:45:43.695Z,97585.00
2023-05-10T01:45:53.704Z,97585.00
2023-05-10T01:46:03.712Z,97587.00
2023-05-10T01:46:13.780Z,97585.00
2023-05-10T01:46:23.857Z,97589.00
2023-05-10T01:46:33.911Z,97585.00
2023-05-10T01:46:43.958Z,97587.00
2023-05-10T01:46:54.013Z,97589.00
2023-05-10T01:47:04.107Z,97585.00
2023-05-10T01:47:14.029Z,97591.00
2023-05-10T01:47:24.032Z,97587.00
2023-05-10T01:47:34.085Z,97589.00
2023-05-10T01:47:44.090Z,97589.00
2023-05-10T01:47:54.169Z,97589.00
2023-05-10T01:48:04.196Z,97589.00
2023-05-10T01:48:14.201Z,97589.00
2023-05-10T01:48:24.216Z,97589.00
2023-05-10T01:48:34.241Z,97589.00
2023-05-10T01:48:44.250Z,97589.00
2023-05-10T01:48:54.255Z,97589.00
2023-05-10T01:49:04.260Z,97589.00
2023-05-10T01:49:14.257Z,97583.00
2023-05-10T01:49:24.385Z,97585.00
2023-05-10T01:49:34.641Z,97585.00
2023-05-10T01:49:44.642Z,97583.00
2023-05-10T01:49:54.664Z,97583.00
2023-05-10T01:50:04.653Z,97589.00
2023-05-10T01:50:14.959Z,97585.00
2023-05-10T01:50:24.681Z,97587.00
2023-05-10T01:50:34.676Z,97587.00
2023-05-10T01:50:44.805Z,97587.00
2023-05-10T01:50:54.814Z,97589.00
2023-05-10T01:51:04.935Z,97589.00
2023-05-10T01:51:15.077Z,97591.00
2023-05-10T01:51:25.082Z,97587.00
2023-05-10T01:51:35.081Z,97587.00
2023-05-10T01:51:45.085Z,97589.00
2023-05-10T01:51:55.087Z,97589.00
2023-05-10T01:52:05.112Z,97589.00
2023-05-10T01:52:15.123Z,97589.00
2023-05-10T01:52:25.128Z,97589.00
2023-05-10T01:52:35.131Z,97593.00
2023-05-10T01:52:45.138Z,97589.00
2023-05-10T01:52:55.134Z,97589.00
2023-05-10T01:53:05.141Z,97591.00
2023-05-10T01:53:15.143Z,97589.00
2023-05-10T01:53:25.261Z,97589.00
2023-05-10T01:53:35.273Z,97589.00
2023-05-10T01:53:45.308Z,97591.00
2023-05-10T01:53:55.306Z,97591.00
2023-05-10T01:54:05.554Z,97591.00
2023-05-10T01:54:15.573Z,97591.00
2023-05-10T01:54:25.585Z,97591.00
2023-05-10T01:54:35.586Z,97591.00
2023-05-10T01:54:45.593Z,97593.00
2023-05-10T01:54:55.603Z,97593.00
2023-05-10T01:55:05.626Z,97593.00
2023-05-10T01:55:15.652Z,97595.00
2023-05-10T01:55:25.630Z,97591.00
2023-05-10T01:55:35.634Z,97595.00
2023-05-10T01:55:46.025Z,97595.00
2023-05-10T01:55:56.011Z,97597.00
2023-05-10T01:56:06.141Z,97595.00
2023-05-10T01:56:16.389Z,97597.00
2023-05-10T01:56:26.411Z,97597.00
2023-05-10T01:56:36.411Z,97597.00
2023-05-10T01:56:46.409Z,97597.00
2023-05-10T01:56:56.422Z,97593.00
2023-05-10T01:57:06.427Z,97593.00
2023-05-10T01:57:16.437Z,97593.00
2023-05-10T01:57:26.461Z,97593.00
2023-05-10T01:57:36.464Z,97595.00
2023-05-10T01:57:46.497Z,97595.00
2023-05-10T01:57:56.472Z,97595.00
2023-05-10T01:58:06.612Z,97597.00
2023-05-10T01:58:16.610Z,97597.00